Time,TemperatureF,DewpointF,PressureIn,WindDirection,WindDirectionDegrees,WindSpeedMPH,WindSpeedGustMPH,Humidity,HourlyPrecipIn,Conditions,Clouds,dailyrainin,SoftwareType,DateUTC
2013-01-18 00:03:00,30.0,28.2,30.35,WSW,242,0.0,0.0,93,0.00,,,0.00,Wunderground v.1.15,2013-01-18 06:03:00,
2013-01-18 00:09:00,29.9,28.1,30.35,WSW,246,0.0,0.0,93,0.00,,,0.00,Wunderground v.1.15,2013-01-18 06:09:00,
2013-01-18 00:16:00,29.9,28.1,30.35,SW,236,0.0,0.0,93,0.00,,,0.00,Wunderground v.1.15,2013-01-18 06:16:00,
2013-01-18 00:21:00,29.8,28.0,30.34,SW,227,0.0,0.0,93,0.00,,,0.00,Wunderground v.1.15,2013-01-18 06:21:00,
2013-01-18 00:27:00,29.6,27.8,30.34,SW,234,0.0,0.0,93,0.00,,,0.00,Wunderground v.1.15,2013-01-18 06:27:00,
2013-01-18 00:32:00,29.6,27.8,30.34,SW,234,0.0,0.0,93,0.00,,,0.00,Wunderground v.1.15,2013-01-18 06:32:00,
2013-01-18 00:37:00,29.5,27.7,30.33,SW,229,0.0,0.0,93,0.00,,,0.00,Wunderground v.1.15,2013-01-18 06:37:00,
2013-01-18 00:42:00,29.4,27.6,30.33,SW,232,0.0,0.0,93,0.00,,,0.00,Wunderground v.1.15,2013-01-18 06:42:00,
2013-01-18 00:48:00,29.4,27.6,30.33,SW,225,0.0,0.0,93,0.00,,,0.00,Wunderground v.1.15,2013-01-18 06:48:00,
2013-01-18 00:54:00,29.3,27.5,30.33,SW,218,0.0,0.0,93,0.00,,,0.00,Wunderground v.1.15,2013-01-18 06:54:00,
2013-01-18 01:00:00,29.2,27.4,30.33,SW,225,0.0,0.0,93,0.00,,,0.00,Wunderground v.1.15,2013-01-18 07:00:00,
2013-01-18 01:06:00,29.1,27.0,30.33,SW,234,0.0,0.0,93,0.00,,,0.00,weatherlink.com 1.10,2013-01-18 07:06:00,
2013-01-18 01:11:00,29.1,27.3,30.32,SW,223,0.0,0.0,93,0.00,,,0.00,Wunderground v.1.15,2013-01-18 07:11:00,
2013-01-18 01:20:00,29.0,27.2,30.32,SW,232,0.0,0.0,93,0.00,,,0.00,Wunderground v.1.15,2013-01-18 07:20:00,
2013-01-18 01:26:00,29.0,27.2,30.31,SW,229,0.0,0.0,93,0.00,,,0.00,Wunderground v.1.15,2013-01-18 07:26:00,
2013-01-18 01:32:00,29.1,27.3,30.31,SW,233,0.0,0.0,93,0.00,,,0.00,Wunderground v.1.15,2013-01-18 07:32:00,
2013-01-18 01:37:00,29.2,27.2,30.31,SW,235,0.0,0.0,92,0.00,,,0.00,Wunderground v.1.15,2013-01-18 07:37:00,
2013-01-18 01:43:00,29.3,27.3,30.31,SW,219,0.0,0.0,92,0.00,,,0.00,Wunderground v.1.15,2013-01-18 07:43:00,
2013-01-18 01:49:00,29.4,27.4,30.31,WSW,246,0.0,0.0,92,0.00,,,0.00,Wunderground v.1.15,2013-01-18 07:49:00,
2013-01-18 01:54:00,29.3,27.3,30.30,West,266,0.0,0.0,92,0.00,,,0.00,Wunderground v.1.15,2013-01-18 07:54:00,
2013-01-18 02:00:00,29.4,27.4,30.30,WSW,255,0.0,0.0,92,0.00,,,0.00,Wunderground v.1.15,2013-01-18 08:00:00,
2013-01-18 02:05:00,29.4,27.4,30.30,WSW,250,0.0,0.0,92,0.00,,,0.00,Wunderground v.1.15,2013-01-18 08:05:00,
2013-01-18 02:10:00,29.4,27.4,30.30,West,259,0.0,0.0,92,0.00,,,0.00,Wunderground v.1.15,2013-01-18 08:10:00,
2013-01-18 02:16:00,29.6,27.6,30.29,WSW,250,0.0,0.0,92,0.00,,,0.00,Wunderground v.1.15,2013-01-18 08:16:00,
2013-01-18 02:21:00,29.8,27.8,30.29,WSW,256,0.0,0.0,92,0.00,,,0.00,Wunderground v.1.15,2013-01-18 08:21:00,
2013-01-18 02:27:00,30.1,28.1,30.28,WSW,257,0.0,0.0,92,0.00,,,0.00,Wunderground v.1.15,2013-01-18 08:27:00,
2013-01-18 02:32:00,30.2,28.2,30.29,West,260,0.0,0.0,92,0.00,,,0.00,Wunderground v.1.15,2013-01-18 08:32:00,
2013-01-18 02:37:00,30.2,28.0,30.29,WSW,250,0.0,0.0,91,0.00,,,0.00,weatherlink.com 1.10,2013-01-18 08:37:00,
2013-01-18 02:42:00,30.4,28.1,30.28,WSW,247,0.0,0.0,91,0.00,,,0.00,Wunderground v.1.15,2013-01-18 08:42:00,
2013-01-18 02:47:00,30.5,28.2,30.28,WSW,245,0.0,0.0,91,0.00,,,0.00,Wunderground v.1.15,2013-01-18 08:47:00,
2013-01-18 02:53:00,30.4,28.1,30.27,WSW,245,0.0,0.0,91,0.00,,,0.00,Wunderground v.1.15,2013-01-18 08:53:00,
2013-01-18 02:58:00,30.3,27.7,30.27,West,259,0.0,0.0,90,0.00,,,0.00,Wunderground v.1.15,2013-01-18 08:58:00,
2013-01-18 03:03:00,30.4,27.8,30.27,WSW,245,0.0,0.0,90,0.00,,,0.00,Wunderground v.1.15,2013-01-18 09:03:00,
2013-01-18 03:08:00,30.4,27.8,30.26,WSW,237,0.0,0.0,90,0.00,,,0.00,Wunderground v.1.15,2013-01-18 09:08:00,
2013-01-18 03:14:00,30.4,27.8,30.26,WSW,253,0.0,0.0,90,0.00,,,0.00,Wunderground v.1.15,2013-01-18 09:14:00,
2013-01-18 03:20:00,30.7,27.8,30.26,WSW,253,0.0,0.0,89,0.00,,,0.00,Wunderground v.1.15,2013-01-18 09:20:00,
2013-01-18 03:25:00,30.7,27.8,30.25,SW,232,0.0,0.0,89,0.00,,,0.00,Wunderground v.1.15,2013-01-18 09:25:00,
2013-01-18 03:31:00,30.8,27.9,30.25,WSW,249,0.0,0.0,89,0.00,,,0.00,Wunderground v.1.15,2013-01-18 09:31:00,
2013-01-18 03:37:00,30.8,27.7,30.24,WSW,251,0.0,0.0,88,0.00,,,0.00,Wunderground v.1.15,2013-01-18 09:37:00,
2013-01-18 03:42:00,30.9,27.8,30.23,WSW,246,0.0,0.0,88,0.00,,,0.00,Wunderground v.1.15,2013-01-18 09:42:00,
2013-01-18 03:48:00,31.5,28.4,30.23,WSW,244,0.0,0.0,88,0.00,,,0.00,Wunderground v.1.15,2013-01-18 09:48:00,
2013-01-18 03:53:00,32.0,28.6,30.22,WSW,255,0.0,0.0,87,0.00,,,0.00,Wunderground v.1.15,2013-01-18 09:53:00,
2013-01-18 03:59:00,32.3,28.6,30.22,WSW,248,0.0,0.0,86,0.00,,,0.00,Wunderground v.1.15,2013-01-18 09:59:00,
2013-01-18 04:05:00,32.8,29.1,30.22,West,278,0.0,0.0,86,0.00,,,0.00,Wunderground v.1.15,2013-01-18 10:05:00,
2013-01-18 04:11:00,33.6,29.6,30.21,West,269,0.0,0.0,85,0.00,,,0.00,Wunderground v.1.15,2013-01-18 10:11:00,
2013-01-18 04:16:00,34.3,29.7,30.21,West,259,0.0,0.0,83,0.00,,,0.00,Wunderground v.1.15,2013-01-18 10:16:00,
2013-01-18 04:23:00,34.5,29.3,30.20,West,274,0.0,0.0,81,0.00,,,0.00,Wunderground v.1.15,2013-01-18 10:23:00,
2013-01-18 04:28:00,34.7,29.2,30.20,WSW,256,0.0,0.0,80,0.00,,,0.00,Wunderground v.1.15,2013-01-18 10:28:00,
2013-01-18 04:33:00,34.8,29.3,30.20,West,269,0.0,0.0,80,0.00,,,0.00,Wunderground v.1.15,2013-01-18 10:33:00,
2013-01-18 04:39:00,35.1,29.2,30.20,West,261,0.0,0.0,79,0.00,,,0.00,Wunderground v.1.15,2013-01-18 10:39:00,
2013-01-18 04:44:00,35.4,29.2,30.20,West,259,0.0,0.0,78,0.00,,,0.00,Wunderground v.1.15,2013-01-18 10:44:00,
2013-01-18 04:50:00,35.3,28.8,30.19,West,276,0.0,0.0,77,0.00,,,0.00,Wunderground v.1.15,2013-01-18 10:50:00,
2013-01-18 04:56:00,35.3,28.8,30.18,West,263,0.0,0.0,77,0.00,,,0.00,Wunderground v.1.15,2013-01-18 10:56:00,
2013-01-18 05:02:00,35.3,28.8,30.18,West,272,0.0,0.0,77,0.00,,,0.00,Wunderground v.1.15,2013-01-18 11:02:00,
2013-01-18 05:08:00,35.1,28.6,30.18,West,281,0.0,0.0,77,0.00,,,0.00,Wunderground v.1.15,2013-01-18 11:08:00,
2013-01-18 05:13:00,34.8,28.3,30.18,WSW,254,0.0,0.0,77,0.00,,,0.00,Wunderground v.1.15,2013-01-18 11:13:00,
2013-01-18 05:19:00,34.6,28.1,30.17,West,270,0.0,0.0,77,0.00,,,0.00,Wunderground v.1.15,2013-01-18 11:19:00,
2013-01-18 05:25:00,34.4,27.9,30.17,West,269,0.0,0.0,77,0.00,,,0.00,Wunderground v.1.15,2013-01-18 11:25:00,
2013-01-18 05:31:00,34.4,28.2,30.17,West,269,0.0,0.0,78,0.00,,,0.00,Wunderground v.1.15,2013-01-18 11:31:00,
2013-01-18 05:36:00,34.4,28.2,30.16,West,264,0.0,0.0,78,0.00,,,0.00,Wunderground v.1.15,2013-01-18 11:36:00,
2013-01-18 05:42:00,34.4,28.2,30.16,West,264,0.0,0.0,78,0.00,,,0.00,Wunderground v.1.15,2013-01-18 11:42:00,
2013-01-18 05:48:00,34.4,28.2,30.15,West,274,0.0,0.0,78,0.00,,,0.00,Wunderground v.1.15,2013-01-18 11:48:00,
2013-01-18 05:53:00,34.4,27.9,30.15,West,263,0.0,0.0,77,0.00,,,0.00,Wunderground v.1.15,2013-01-18 11:53:00,
2013-01-18 05:58:00,34.4,27.9,30.15,WNW,284,0.0,0.0,77,0.00,,,0.00,Wunderground v.1.15,2013-01-18 11:58:00,
2013-01-18 06:04:00,34.4,27.9,30.14,West,261,0.0,0.0,77,0.00,,,0.00,Wunderground v.1.15,2013-01-18 12:04:00,
2013-01-18 06:10:00,34.4,27.9,30.14,West,272,0.0,0.0,77,0.00,,,0.00,Wunderground v.1.15,2013-01-18 12:10:00,
2013-01-18 06:15:00,34.4,27.9,30.14,West,261,0.0,0.0,77,0.00,,,0.00,Wunderground v.1.15,2013-01-18 12:15:00,
2013-01-18 06:20:00,34.6,28.1,30.13,West,269,0.0,0.0,77,0.00,,,0.00,Wunderground v.1.15,2013-01-18 12:20:00,
2013-01-18 06:27:00,34.7,28.2,30.13,West,272,0.0,0.0,77,0.00,,,0.00,Wunderground v.1.15,2013-01-18 12:27:00,
2013-01-18 06:33:00,34.9,28.1,30.12,West,264,0.0,0.0,76,0.00,,,0.00,Wunderground v.1.15,2013-01-18 12:33:00,
2013-01-18 06:39:00,35.0,28.0,30.11,West,265,0.0,0.0,76,0.00,,,0.00,weatherlink.com 1.10,2013-01-18 12:39:00,
2013-01-18 06:44:00,35.0,28.2,30.11,WSW,254,0.0,0.0,76,0.00,,,0.00,Wunderground v.1.15,2013-01-18 12:44:00,
2013-01-18 06:49:00,35.0,28.2,30.12,West,269,0.0,0.0,76,0.00,,,0.00,Wunderground v.1.15,2013-01-18 12:49:00,
2013-01-18 06:55:00,35.1,28.3,30.11,West,271,0.0,0.0,76,0.00,,,0.00,Wunderground v.1.15,2013-01-18 12:55:00,
2013-01-18 07:00:00,35.2,28.4,30.12,West,268,0.0,0.0,76,0.00,,,0.00,Wunderground v.1.15,2013-01-18 13:00:00,
2013-01-18 07:06:00,35.1,28.3,30.11,West,274,0.0,0.0,76,0.00,,,0.00,Wunderground v.1.15,2013-01-18 13:06:00,
2013-01-18 07:12:00,35.1,28.3,30.11,West,265,0.0,0.0,76,0.00,,,0.00,Wunderground v.1.15,2013-01-18 13:12:00,
2013-01-18 07:18:00,35.0,28.2,30.11,West,277,0.0,0.0,76,0.00,,,0.00,Wunderground v.1.15,2013-01-18 13:18:00,
2013-01-18 07:24:00,34.8,28.3,30.11,West,267,0.0,0.0,77,0.00,,,0.00,Wunderground v.1.15,2013-01-18 13:24:00,
2013-01-18 07:29:00,34.7,28.2,30.11,West,277,0.0,0.0,77,0.00,,,0.00,Wunderground v.1.15,2013-01-18 13:29:00,
2013-01-18 07:34:00,34.7,28.2,30.11,WNW,287,0.0,0.0,77,0.00,,,0.00,Wunderground v.1.15,2013-01-18 13:34:00,
2013-01-18 07:40:00,34.8,28.3,30.10,West,273,0.0,0.0,77,0.00,,,0.00,Wunderground v.1.15,2013-01-18 13:40:00,
2013-01-18 07:46:00,34.9,28.4,30.10,West,272,0.0,0.0,77,0.00,,,0.00,Wunderground v.1.15,2013-01-18 13:46:00,
2013-01-18 07:52:00,35.1,28.6,30.10,WNW,284,0.0,0.0,77,0.00,,,0.00,Wunderground v.1.15,2013-01-18 13:52:00,
2013-01-18 07:57:00,35.2,28.7,30.11,West,281,0.0,0.0,77,0.00,,,0.00,Wunderground v.1.15,2013-01-18 13:57:00,
2013-01-18 08:02:00,35.3,28.8,30.11,WNW,283,0.0,0.0,77,0.00,,,0.00,Wunderground v.1.15,2013-01-18 14:02:00,
2013-01-18 08:08:00,35.4,28.9,30.11,WNW,290,0.0,0.0,77,0.00,,,0.00,Wunderground v.1.15,2013-01-18 14:08:00,
2013-01-18 08:16:00,35.4,28.9,30.11,WNW,292,0.0,0.0,77,0.00,,,0.00,Wunderground v.1.15,2013-01-18 14:16:00,
2013-01-18 08:21:00,35.5,29.0,30.10,West,274,0.0,0.0,77,0.00,,,0.00,Wunderground v.1.15,2013-01-18 14:21:00,
2013-01-18 08:27:00,35.6,29.1,30.10,West,273,0.0,0.0,77,0.00,,,0.00,Wunderground v.1.15,2013-01-18 14:27:00,
2013-01-18 08:32:00,35.6,29.4,30.10,West,277,0.0,0.0,78,0.00,,,0.00,Wunderground v.1.15,2013-01-18 14:32:00,
2013-01-18 08:38:00,35.8,29.3,30.10,West,269,0.0,0.0,77,0.00,,,0.00,Wunderground v.1.15,2013-01-18 14:38:00,
2013-01-18 08:43:00,36.0,29.5,30.10,West,265,0.0,0.0,77,0.00,,,0.00,Wunderground v.1.15,2013-01-18 14:43:00,
2013-01-18 08:49:00,36.2,29.7,30.10,West,280,0.0,0.0,77,0.00,,,0.00,Wunderground v.1.15,2013-01-18 14:49:00,
2013-01-18 08:54:00,36.3,29.8,30.10,WNW,296,0.0,0.0,77,0.00,,,0.00,Wunderground v.1.15,2013-01-18 14:54:00,
2013-01-18 09:00:00,36.5,30.0,30.10,West,277,0.0,0.0,77,0.00,,,0.00,Wunderground v.1.15,2013-01-18 15:00:00,
2013-01-18 09:05:00,36.7,30.2,30.10,West,269,0.0,0.0,77,0.00,,,0.00,Wunderground v.1.15,2013-01-18 15:05:00,
2013-01-18 09:12:00,36.9,30.4,30.10,West,265,0.0,0.0,77,0.00,,,0.00,Wunderground v.1.15,2013-01-18 15:12:00,
2013-01-18 09:17:00,37.1,30.6,30.10,West,273,0.0,0.0,77,0.00,,,0.00,Wunderground v.1.15,2013-01-18 15:17:00,
2013-01-18 19:08:00,-999.0,-99.9,0.00,North,-999,-999.0,-999.0,-999,0.00,,,0.00,weatherlink.com 1.10,2013-01-19 01:08:00,
2013-01-18 19:13:00,-999.9,-99.9,-32.77,North,32767,-999.0,0.0,255,-99.99,,,0.00,Wunderground v.1.15,2013-01-19 01:13:00,
2013-01-18 19:19:00,-999.9,-99.9,-32.77,North,32767,-999.0,0.0,255,-99.99,,,0.00,Wunderground v.1.15,2013-01-19 01:19:00,
2013-01-18 19:25:00,42.5,32.3,29.99,WNW,286,0.0,0.0,67,0.00,,,0.00,Wunderground v.1.15,2013-01-19 01:25:00,
2013-01-18 19:30:00,42.5,32.3,29.98,NW,304,0.0,0.0,67,0.00,,,0.00,Wunderground v.1.15,2013-01-19 01:30:00,
2013-01-18 19:35:00,42.7,32.1,29.98,WNW,285,0.0,0.0,66,0.00,,,0.00,Wunderground v.1.15,2013-01-19 01:35:00,
2013-01-18 19:41:00,42.7,32.1,29.98,West,275,0.0,0.0,66,0.00,,,0.00,Wunderground v.1.15,2013-01-19 01:41:00,
2013-01-18 19:47:00,42.8,31.8,29.98,West,273,0.0,0.0,65,0.00,,,0.00,Wunderground v.1.15,2013-01-19 01:47:00,
2013-01-18 19:53:00,42.0,31.5,29.98,WNW,287,0.0,0.0,66,0.00,,,0.00,Wunderground v.1.15,2013-01-19 01:53:00,
2013-01-18 19:59:00,41.1,31.3,29.98,West,275,0.0,0.0,68,0.00,,,0.00,Wunderground v.1.15,2013-01-19 01:59:00,
2013-01-18 20:04:00,40.7,31.3,29.98,West,274,0.0,0.0,69,0.00,,,0.00,Wunderground v.1.15,2013-01-19 02:04:00,
2013-01-18 20:10:00,40.5,31.5,29.97,WNW,284,0.0,0.0,70,0.00,,,0.00,Wunderground v.1.15,2013-01-19 02:10:00,
2013-01-18 20:16:00,40.2,31.2,29.97,West,279,0.0,0.0,70,0.00,,,0.00,Wunderground v.1.15,2013-01-19 02:16:00,
2013-01-18 20:21:00,40.4,31.4,29.97,West,277,0.0,0.0,70,0.00,,,0.00,Wunderground v.1.15,2013-01-19 02:21:00,
2013-01-18 20:27:00,40.7,31.7,29.97,WNW,287,0.0,0.0,70,0.00,,,0.00,Wunderground v.1.15,2013-01-19 02:27:00,
2013-01-18 20:32:00,40.5,31.5,29.97,West,272,0.0,0.0,70,0.00,,,0.00,Wunderground v.1.15,2013-01-19 02:32:00,
2013-01-18 20:37:00,40.2,31.2,29.96,West,271,0.0,0.0,70,0.00,,,0.00,Wunderground v.1.15,2013-01-19 02:37:00,
2013-01-18 20:43:00,39.7,31.1,29.96,West,272,0.0,0.0,71,0.00,,,0.00,Wunderground v.1.15,2013-01-19 02:43:00,
2013-01-18 20:48:00,39.4,31.1,29.96,West,274,0.0,0.0,72,0.00,,,0.00,Wunderground v.1.15,2013-01-19 02:48:00,
2013-01-18 20:53:00,39.2,30.9,29.96,West,280,0.0,0.0,72,0.00,,,0.00,Wunderground v.1.15,2013-01-19 02:53:00,
2013-01-18 20:59:00,39.2,32.3,29.96,West,264,0.0,0.0,76,0.00,,,0.00,Wunderground v.1.15,2013-01-19 02:59:00,
2013-01-18 21:04:00,39.3,31.0,29.95,West,275,0.0,0.0,72,0.00,,,0.00,Wunderground v.1.15,2013-01-19 03:04:00,
2013-01-18 21:10:00,39.5,31.2,29.95,West,276,0.0,0.0,72,0.00,,,0.00,Wunderground v.1.15,2013-01-19 03:10:00,
2013-01-18 21:15:00,39.4,30.8,29.95,West,281,0.0,0.0,71,0.00,,,0.00,Wunderground v.1.15,2013-01-19 03:15:00,
2013-01-18 21:21:00,39.2,30.9,29.95,WNW,288,0.0,0.0,72,0.00,,,0.00,Wunderground v.1.15,2013-01-19 03:21:00,
2013-01-18 21:26:00,39.2,30.9,29.95,West,279,0.0,0.0,72,0.00,,,0.00,Wunderground v.1.15,2013-01-19 03:26:00,
2013-01-18 21:32:00,39.3,31.0,29.95,WNW,287,0.0,0.0,72,0.00,,,0.00,Wunderground v.1.15,2013-01-19 03:32:00,
2013-01-18 21:38:00,39.4,31.0,29.95,West,279,0.0,0.0,72,0.00,,,0.00,weatherlink.com 1.10,2013-01-19 03:38:00,
2013-01-18 21:43:00,39.5,30.9,29.95,WNW,285,0.0,0.0,71,0.00,,,0.00,Wunderground v.1.15,2013-01-19 03:43:00,
2013-01-18 21:49:00,39.4,30.8,29.95,WNW,290,0.0,0.0,71,0.00,,,0.00,Wunderground v.1.15,2013-01-19 03:49:00,
2013-01-18 21:54:00,39.4,31.0,29.95,West,280,0.0,0.0,71,0.00,,,0.00,weatherlink.com 1.10,2013-01-19 03:54:00,
2013-01-18 22:00:00,39.3,30.7,29.95,WNW,298,0.0,0.0,71,0.00,,,0.00,Wunderground v.1.15,2013-01-19 04:00:00,
2013-01-18 22:06:00,39.1,30.8,29.95,WNW,290,0.0,0.0,72,0.00,,,0.00,Wunderground v.1.15,2013-01-19 04:06:00,
2013-01-18 22:11:00,39.0,30.7,29.95,WNW,290,0.0,0.0,72,0.00,,,0.00,Wunderground v.1.15,2013-01-19 04:11:00,
2013-01-18 22:17:00,38.7,30.4,29.95,West,276,0.0,0.0,72,0.00,,,0.00,Wunderground v.1.15,2013-01-19 04:17:00,
2013-01-18 22:22:00,38.4,30.2,29.94,WNW,294,0.0,0.0,72,0.00,,,0.00,Wunderground v.1.15,2013-01-19 04:22:00,
2013-01-18 22:29:00,38.3,30.4,29.94,WNW,286,0.0,0.0,73,0.00,,,0.00,Wunderground v.1.15,2013-01-19 04:29:00,
2013-01-18 22:34:00,38.2,30.3,29.94,WNW,300,0.0,0.0,73,0.00,,,0.00,Wunderground v.1.15,2013-01-19 04:34:00,
2013-01-18 22:40:00,37.9,30.0,29.94,WNW,282,0.0,0.0,74,0.00,,,0.00,weatherlink.com 1.10,2013-01-19 04:40:00,
2013-01-18 22:45:00,37.9,30.4,29.94,West,275,0.0,0.0,74,0.00,,,0.00,Wunderground v.1.15,2013-01-19 04:45:00,
2013-01-18 22:50:00,37.8,30.3,29.93,West,279,0.0,0.0,74,0.00,,,0.00,Wunderground v.1.15,2013-01-19 04:50:00,
2013-01-18 22:56:00,38.0,30.4,29.93,NW,309,0.0,0.0,74,0.00,,,0.00,Wunderground v.1.15,2013-01-19 04:56:00,
2013-01-18 23:02:00,38.0,30.4,29.93,WNW,284,0.0,0.0,74,0.00,,,0.00,Wunderground v.1.15,2013-01-19 05:02:00,
2013-01-18 23:03:00,38.0,30.4,29.93,WNW,294,0.0,0.0,74,0.00,,,0.00,Wunderground v.1.15,2013-01-19 05:03:00,
2013-01-18 23:04:00,38.0,30.4,29.93,WNW,284,0.0,0.0,74,0.00,,,0.00,Wunderground v.1.15,2013-01-19 05:04:00,
2013-01-18 23:05:00,38.0,30.4,29.93,West,275,0.0,0.0,74,0.00,,,0.00,Wunderground v.1.15,2013-01-19 05:05:00,
2013-01-18 23:10:00,37.9,30.4,29.93,WNW,300,0.0,0.0,74,0.00,,,0.00,Wunderground v.1.15,2013-01-19 05:10:00,
2013-01-18 23:20:00,37.8,30.3,29.93,WNW,297,0.0,0.0,74,0.00,,,0.00,Wunderground v.1.15,2013-01-19 05:20:00,
2013-01-18 23:26:00,37.4,30.2,29.93,NW,304,0.0,0.0,75,0.00,,,0.00,Wunderground v.1.15,2013-01-19 05:26:00,
2013-01-18 23:32:00,37.3,30.1,29.93,WNW,291,0.0,0.0,75,0.00,,,0.00,Wunderground v.1.15,2013-01-19 05:32:00,
2013-01-18 23:38:00,37.3,30.0,29.93,West,279,0.0,0.0,75,0.00,,,0.00,weatherlink.com 1.10,2013-01-19 05:38:00,
2013-01-18 23:43:00,37.0,29.5,29.92,WNW,283,0.0,0.0,74,0.00,,,0.00,Wunderground v.1.15,2013-01-19 05:43:00,
2013-01-18 23:50:00,36.6,29.4,29.92,WNW,295,0.0,0.0,75,0.00,,,0.00,Wunderground v.1.15,2013-01-19 05:50:00,
2013-01-18 23:56:00,36.4,29.2,29.92,WNW,297,0.0,0.0,75,0.00,,,0.00,Wunderground v.1.15,2013-01-19 05:56:00,